This demonstration page uses our WeatherBlox Daily Observations layout. Learn more.

39.29038, -76.61219

Hourly Observations for December 29, 2017

Temp ( °F °C ) Dew Point ( °F °C ) Humidity (%) Winds ( mph kmh ) Pressure ( in mb ) Visibility ( mi km ) Precip ( " mm )
12:54 am 00:54 undefined 20 -6.7 -1 -18.3 40 40 undefined N/A 30.45 1031 N/A 0 0
1:54 am 01:54 undefined 20 -6.7 1 -17.2 43 43 undefined N/A 30.42 1030 N/A 0 0
2:54 am 02:54 undefined 20 -6.7 0 -17.8 41 41 undefined N/A 30.42 1030 N/A 0 0
3:54 am 03:54 undefined 20 -6.7 1 -17.2 43 43 undefined N/A 30.39 1029 N/A 0 0
4:54 am 04:54 undefined 20 -6.7 1 -17.2 43 43 undefined N/A 30.39 1029 N/A 0 0
5:54 am 05:54 undefined 20 -6.7 2 -16.7 45 45 undefined N/A 30.36 1028 N/A 0 0
6:54 am 06:54 undefined 20 -6.7 2 -16.7 45 45 undefined N/A 30.36 1028 N/A 0 0
7:54 am 07:54 undefined 20 -6.7 3 -16.1 48 48 undefined N/A 30.36 1028 N/A 0 0
8:54 am 08:54 undefined 23 -5 1 -17.2 38 38 undefined N/A 30.33 1027 N/A 0 0
9:54 am 09:54 undefined 25 -3.9 4 -15.6 40 40 undefined N/A 30.33 1027 N/A 0 0
10:54 am 10:54 undefined 25 -3.9 3 -16.1 39 39 undefined N/A 30.33 1027 N/A 0 0
11:54 am 11:54 undefined 26 -3.3 3 -16.1 37 37 undefined N/A 30.3 1026 N/A 0 0
12:54 pm 12:54 undefined 27 -2.8 2 -16.7 34 34 undefined N/A 30.24 1024 N/A 0 0
1:54 pm 13:54 undefined 28 -2.2 3 -16.1 34 34 undefined N/A 30.27 1025 N/A 0 0
2:54 pm 14:54 undefined 28 -2.2 5 -15 37 37 undefined N/A 30.27 1025 N/A 0 0
3:54 pm 15:54 undefined 28 -2.2 5 -15 37 37 undefined N/A 30.27 1025 N/A 0 0
4:54 pm 16:54 undefined 27 -2.8 6 -14.4 41 41 undefined N/A 30.27 1025 N/A 0 0
5:54 pm 17:54 undefined 27 -2.8 8 -13.3 45 45 undefined N/A 30.27 1025 N/A 0 0
6:54 pm 18:54 undefined 26 -3.3 7 -13.9 44 44 undefined N/A 30.3 1026 N/A 0 0
7:54 pm 19:54 undefined 26 -3.3 8 -13.3 46 46 undefined N/A 30.3 1026 N/A 0 0
8:54 pm 20:54 undefined 25 -3.9 8 -13.3 48 48 undefined N/A 30.3 1026 N/A 0 0
9:54 pm 21:54 undefined 24 -4.4 8 -13.3 50 50 undefined N/A 30.3 1026 N/A 0 0
10:54 pm 22:54 undefined 23 -5 7 -13.9 50 50 undefined N/A 30.3 1026 N/A 0 0
11:54 pm 23:54 undefined 23 -5 7 -13.9 50 50 undefined N/A 30.24 1024 N/A 0 0

Powered by AerisWeather